Time;durP1;ratioP1;P1;durP2;ratioP2;P2;SDS_P1;SDS_P2;PMS_P1;PMS_P2;Temp;Humidity;BMP_temperature;BMP_pressure;BME280_temperature;BME280_humidity;BME280_pressure;Samples;Min_cycle;Max_cycle;Signal;HPM_P1;HPM_P2
2023/09/18 00:02:20;;;;;;;0.50;0.50;;;18.70;99.90;;;;;;4978768;28;20046;-94
2023/09/18 00:04:49;;;;;;;0.60;0.60;;;19.10;99.90;;;;;;4975602;28;20041;-94
2023/09/18 00:07:17;;;;;;;0.50;0.50;;;19.20;99.90;;;;;;4976060;28;20044;-93
2023/09/18 00:09:43;;;;;;;0.50;0.50;;;19.10;99.90;;;;;;4979509;28;20034;-95
2023/09/18 00:12:09;;;;;;;0.50;0.50;;;19.10;99.90;;;;;;4991978;28;20037;-91
2023/09/18 00:14:36;;;;;;;0.50;0.50;;;18.30;99.90;;;;;;4979031;28;20045;-94
2023/09/18 00:17:06;;;;;;;0.50;0.50;;;19.00;99.90;;;;;;4988347;23;20026;-92
2023/09/18 00:19:33;;;;;;;0.50;0.50;;;18.50;99.90;;;;;;4974822;28;20050;-92
2023/09/18 00:22:00;;;;;;;0.50;0.50;;;19.20;99.90;;;;;;4977719;28;20085;-90
2023/09/18 00:24:34;;;;;;;0.50;0.50;;;19.40;99.90;;;;;;4978203;28;20133;-95
2023/09/18 00:34:31;;;;;;;0.50;0.50;;;18.90;99.90;;;;;;4958453;28;20151;-94
2023/09/18 00:36:59;;;;;;;0.50;0.50;;;19.20;99.90;;;;;;4947096;28;20235;-92
2023/09/18 00:39:26;;;;;;;0.50;0.50;;;19.20;99.90;;;;;;4928324;28;20043;-90
2023/09/18 00:41:53;;;;;;;0.50;0.50;;;18.90;99.90;;;;;;4984167;28;20049;-92
2023/09/18 00:44:24;;;;;;;0.50;0.50;;;18.50;99.90;;;;;;4983080;28;20050;-94
2023/09/18 00:46:51;;;;;;;0.50;0.50;;;19.30;99.90;;;;;;4975142;28;20069;-90
2023/09/18 00:49:18;;;;;;;0.40;0.40;;;19.00;99.90;;;;;;4993309;28;20050;-92
2023/09/18 00:51:44;;;;;;;0.40;0.40;;;19.20;99.90;;;;;;4976269;28;20050;-92
2023/09/18 00:54:11;;;;;;;0.45;0.45;;;18.70;99.90;;;;;;4992420;28;20132;-92
2023/09/18 00:56:37;;;;;;;0.50;0.50;;;19.20;99.90;;;;;;4992042;28;20049;-91
2023/09/18 00:59:03;;;;;;;0.50;0.50;;;19.30;99.90;;;;;;4973225;28;20034;-92
2023/09/18 01:01:29;;;;;;;0.50;0.50;;;19.10;99.90;;;;;;4976073;28;20049;-91
2023/09/18 01:03:57;;;;;;;0.45;0.45;;;18.90;99.90;;;;;;4992238;28;20099;-92
2023/09/18 01:06:30;;;;;;;0.50;0.50;;;19.10;99.90;;;;;;4992902;28;20056;-93
2023/09/18 01:08:56;;;;;;;0.40;0.40;;;19.10;99.90;;;;;;4976478;28;20040;-92
2023/09/18 01:11:47;;;;;;;0.40;0.40;;;19.10;99.90;;;;;;4977044;28;20056;-90
2023/09/18 01:14:16;;;;;;;0.40;0.40;;;18.80;99.90;;;;;;4977286;28;20046;-91
2023/09/18 01:16:57;;;;;;;0.43;0.43;;;18.90;99.90;;;;;;4976078;28;20131;-90
2023/09/18 01:19:46;;;;;;;0.40;0.40;;;18.90;99.90;;;;;;4975980;28;20038;-91
2023/09/18 01:22:16;;;;;;;0.40;0.40;;;19.30;99.90;;;;;;4987889;28;20042;-90
2023/09/18 01:24:44;;;;;;;0.50;0.50;;;18.80;99.90;;;;;;4968093;28;20177;-87
2023/09/18 01:27:16;;;;;;;0.40;0.40;;;19.20;99.90;;;;;;4989408;28;20050;-88
2023/09/18 01:29:43;;;;;;;0.40;0.40;;;19.10;99.90;;;;;;4975986;28;20073;-91
2023/09/18 01:32:09;;;;;;;0.40;0.40;;;18.80;99.90;;;;;;4990751;28;20254;-93
2023/09/18 01:34:42;;;;;;;0.40;0.40;;;18.80;99.90;;;;;;4968788;28;20045;-91
2023/09/18 01:37:10;;;;;;;0.40;0.40;;;19.20;99.90;;;;;;4975941;28;20188;-89
2023/09/18 01:39:39;;;;;;;0.40;0.40;;;18.70;99.90;;;;;;4988078;28;20046;-92
2023/09/18 01:42:09;;;;;;;0.40;0.40;;;18.80;99.90;;;;;;4976808;28;20046;-88
2023/09/18 01:44:37;;;;;;;0.40;0.40;;;18.70;99.90;;;;;;4994982;28;20068;-89
2023/09/18 01:47:05;;;;;;;0.50;0.50;;;19.20;99.90;;;;;;4977926;28;20060;-91
2023/09/18 01:49:38;;;;;;;0.50;0.50;;;19.00;99.90;;;;;;4980118;28;20045;-92
2023/09/18 01:52:06;;;;;;;0.50;0.50;;;18.80;99.90;;;;;;4970360;28;20049;-91
2023/09/18 01:54:33;;;;;;;0.40;0.40;;;19.00;99.90;;;;;;4972512;28;20094;-91
2023/09/18 01:56:59;;;;;;;0.43;0.43;;;18.70;99.90;;;;;;4975367;28;20462;-86
2023/09/18 01:59:25;;;;;;;0.50;0.50;;;19.20;99.90;;;;;;4992198;28;20053;-90
2023/09/18 02:01:52;;;;;;;0.50;0.50;;;18.80;99.90;;;;;;4991339;28;20050;-89
2023/09/18 02:04:18;;;;;;;0.50;0.50;;;19.00;99.90;;;;;;4992349;28;20116;-90
2023/09/18 02:06:44;;;;;;;0.50;0.50;;;19.20;99.90;;;;;;4989388;28;20050;-87
2023/09/18 02:09:10;;;;;;;0.50;0.50;;;19.20;99.90;;;;;;4975965;28;20053;-90
2023/09/18 02:11:41;;;;;;;0.50;0.50;;;19.30;99.90;;;;;;4976199;28;20196;-89
2023/09/18 02:14:07;;;;;;;0.50;0.50;;;19.10;99.90;;;;;;4989720;28;20141;-88
2023/09/18 02:16:34;;;;;;;0.45;0.45;;;19.20;99.90;;;;;;4975692;28;20073;-87
2023/09/18 02:19:00;;;;;;;0.40;0.40;;;19.10;99.90;;;;;;5009630;28;20044;-88
2023/09/18 02:21:26;;;;;;;0.50;0.50;;;19.00;99.90;;;;;;4972914;28;20399;-88
2023/09/18 02:23:52;;;;;;;0.50;0.50;;;19.30;99.90;;;;;;4992553;28;20380;-88
2023/09/18 02:26:19;;;;;;;0.50;0.50;;;18.80;99.90;;;;;;4977372;28;20053;-89
2023/09/18 02:28:45;;;;;;;0.50;0.50;;;19.10;99.90;;;;;;4975161;28;20523;-90
2023/09/18 02:31:11;;;;;;;0.50;0.50;;;19.20;99.90;;;;;;4992662;28;20076;-85
2023/09/18 02:33:37;;;;;;;0.50;0.50;;;19.40;99.90;;;;;;4989259;28;20082;-88
2023/09/18 02:36:03;;;;;;;0.50;0.50;;;19.20;99.90;;;;;;4988391;28;20542;-86
2023/09/18 02:38:32;;;;;;;0.50;0.50;;;19.00;99.90;;;;;;4986869;28;20054;-88
2023/09/18 02:40:58;;;;;;;0.50;0.50;;;19.00;99.90;;;;;;4996206;28;20074;-92
2023/09/18 02:43:23;;;;;;;0.50;0.50;;;19.20;99.90;;;;;;4975401;28;20639;-89
2023/09/18 02:45:50;;;;;;;0.50;0.50;;;19.40;99.90;;;;;;4995195;28;20168;-89
2023/09/18 02:48:16;;;;;;;0.55;0.55;;;19.30;99.90;;;;;;4975459;28;20045;-89
2023/09/18 02:50:42;;;;;;;0.50;0.50;;;19.30;99.90;;;;;;4993401;28;20057;-89
2023/09/18 02:53:18;;;;;;;0.50;0.50;;;19.20;99.90;;;;;;4972791;28;20042;-85
2023/09/18 02:55:44;;;;;;;0.50;0.50;;;19.20;99.90;;;;;;4972997;28;20085;-86
2023/09/18 02:58:10;;;;;;;0.50;0.50;;;19.20;99.90;;;;;;4991149;28;20073;-88
2023/09/18 03:00:42;;;;;;;0.50;0.50;;;19.20;99.90;;;;;;4990837;28;20053;-88
2023/09/18 03:03:07;;;;;;;0.50;0.50;;;19.00;99.90;;;;;;4989816;28;20141;-89
2023/09/18 03:05:33;;;;;;;0.60;0.60;;;19.00;99.90;;;;;;4974937;28;20132;-88
2023/09/18 03:07:59;;;;;;;0.50;0.50;;;19.30;99.90;;;;;;4976682;28;20496;-92
2023/09/18 03:10:25;;;;;;;0.40;0.40;;;19.30;99.90;;;;;;4973861;28;20396;-89
2023/09/18 03:12:50;;;;;;;0.50;0.50;;;19.00;99.90;;;;;;4993202;28;20053;-92
2023/09/18 03:15:16;;;;;;;0.50;0.50;;;19.00;99.90;;;;;;4977803;28;20571;-93
2023/09/18 03:17:42;;;;;;;0.50;0.50;;;19.00;99.90;;;;;;4976740;28;20557;-90
2023/09/18 03:20:08;;;;;;;0.50;0.50;;;19.20;99.90;;;;;;4978514;28;20594;-90
2023/09/18 03:22:35;;;;;;;0.50;0.50;;;18.90;99.90;;;;;;4978271;28;20124;-92
2023/09/18 03:25:01;;;;;;;0.50;0.50;;;19.40;99.90;;;;;;4976946;28;20407;-93
2023/09/18 03:27:28;;;;;;;0.50;0.50;;;19.10;99.90;;;;;;4995550;28;20089;-91
2023/09/18 03:30:00;;;;;;;0.50;0.50;;;18.90;99.90;;;;;;4978907;28;20518;-93
2023/09/18 03:32:26;;;;;;;0.60;0.60;;;19.20;99.90;;;;;;4979084;28;20070;-92
2023/09/18 03:34:52;;;;;;;0.50;0.50;;;18.90;99.90;;;;;;4976686;28;20618;-90
2023/09/18 03:37:18;;;;;;;0.50;0.50;;;19.00;99.90;;;;;;4990758;28;20527;-87
2023/09/18 03:39:46;;;;;;;0.50;0.50;;;18.90;99.90;;;;;;4990355;28;20045;-91
2023/09/18 03:42:12;;;;;;;0.57;0.57;;;18.90;99.90;;;;;;4975940;28;20092;-90
2023/09/18 03:44:38;;;;;;;0.60;0.60;;;19.30;99.90;;;;;;4994111;28;20069;-89
2023/09/18 03:47:07;;;;;;;0.50;0.50;;;19.30;99.90;;;;;;4974376;28;20038;-93
2023/09/18 03:49:32;;;;;;;0.50;0.50;;;18.90;99.90;;;;;;4977749;28;20053;-93
2023/09/18 03:52:04;;;;;;;0.60;0.60;;;19.30;99.90;;;;;;4978531;28;20046;-93
2023/09/18 03:54:33;;;;;;;0.57;0.57;;;18.90;99.90;;;;;;4975014;28;20144;-94
2023/09/18 03:56:58;;;;;;;0.50;0.50;;;19.10;99.90;;;;;;4974384;28;20042;-90
2023/09/18 03:59:34;;;;;;;0.60;0.60;;;19.20;99.90;;;;;;4994817;28;20488;-95
2023/09/18 04:02:03;;;;;;;0.70;0.70;;;19.20;99.90;;;;;;4994803;28;20053;-95
2023/09/18 04:04:32;;;;;;;0.50;0.50;;;19.20;99.90;;;;;;4975632;28;20494;-91
2023/09/18 04:06:58;;;;;;;0.50;0.50;;;18.90;99.90;;;;;;4976861;28;20053;-91
2023/09/18 04:09:23;;;;;;;0.50;0.50;;;19.20;99.90;;;;;;4974811;28;20042;-92
2023/09/18 04:11:52;;;;;;;0.50;0.50;;;18.90;99.90;;;;;;4979475;28;20145;-93
2023/09/18 04:14:20;;;;;;;0.52;0.52;;;19.20;99.90;;;;;;4977075;28;20049;-94
2023/09/18 04:16:46;;;;;;;0.57;0.57;;;19.00;99.90;;;;;;4978797;28;20041;-94
2023/09/18 04:19:19;;;;;;;0.50;0.50;;;18.90;99.90;;;;;;4976346;28;20454;-94
2023/09/18 04:21:45;;;;;;;;;;;19.00;99.90;;;;;;4978603;28;20046;-93
2023/09/18 04:24:14;;;;;;;0.60;0.60;;;19.00;99.90;;;;;;4980359;28;19936;-93
2023/09/18 04:26:40;;;;;;;0.60;0.60;;;19.20;99.90;;;;;;4965239;28;20440;-90
2023/09/18 04:29:06;;;;;;;0.50;0.50;;;18.80;99.90;;;;;;4981105;28;20045;-92
2023/09/18 04:31:40;;;;;;;0.50;0.50;;;19.20;99.90;;;;;;4976835;28;20041;-94
2023/09/18 04:34:06;;;;;;;0.50;0.50;;;19.00;99.90;;;;;;4977260;28;20042;-92
2023/09/18 04:36:32;;;;;;;0.60;0.60;;;18.80;99.90;;;;;;4974939;28;20404;-92
2023/09/18 04:38:58;;;;;;;0.60;0.60;;;19.10;99.90;;;;;;4976748;28;20395;-92
2023/09/18 04:41:23;;;;;;;0.60;0.60;;;19.20;99.90;;;;;;4974162;28;20133;-88
2023/09/18 04:43:50;;;;;;;0.57;0.57;;;19.00;99.90;;;;;;4990647;28;20053;-90
2023/09/18 04:46:16;;;;;;;0.50;0.50;;;19.20;99.90;;;;;;4974482;28;20042;-87
2023/09/18 04:48:42;;;;;;;0.52;0.52;;;19.20;99.90;;;;;;4973470;28;20115;-91
2023/09/18 04:51:08;;;;;;;0.57;0.57;;;19.00;99.90;;;;;;4987236;28;20496;-86
2023/09/18 04:53:33;;;;;;;0.60;0.60;;;18.80;99.90;;;;;;4987678;28;20495;-87
2023/09/18 04:56:00;;;;;;;0.60;0.60;;;19.00;99.90;;;;;;4989428;28;20050;-88
2023/09/18 04:58:26;;;;;;;0.60;0.60;;;19.10;99.90;;;;;;4974126;28;20042;-88
2023/09/18 05:01:00;;;;;;;0.60;0.60;;;19.00;99.90;;;;;;4970591;28;20128;-89
2023/09/18 05:03:29;;;;;;;;;;;18.90;99.90;;;;;;4970184;28;20038;-91
2023/09/18 05:05:54;;;;;;;0.60;0.60;;;19.00;99.90;;;;;;4969556;28;19925;-89
2023/09/18 05:08:20;;;;;;;0.50;0.50;;;19.10;99.90;;;;;;4980699;28;20095;-87
2023/09/18 05:10:47;;;;;;;0.50;0.50;;;19.00;99.90;;;;;;4985128;28;20042;-88
2023/09/18 05:13:13;;;;;;;0.52;0.52;;;19.10;99.90;;;;;;4978440;28;20046;-88
2023/09/18 05:15:40;;;;;;;0.60;0.60;;;18.80;99.90;;;;;;4971671;28;20787;-90
2023/09/18 05:18:06;;;;;;;0.60;0.60;;;18.90;99.90;;;;;;4971963;28;20080;-90
2023/09/18 05:20:35;;;;;;;0.57;0.57;;;18.70;99.90;;;;;;4970100;28;20109;-89
2023/09/18 05:23:04;;;;;;;0.68;0.68;;;19.00;99.90;;;;;;4967532;28;20092;-88
2023/09/18 05:25:33;;;;;;;0.60;0.60;;;18.60;99.90;;;;;;4967229;28;20760;-88
2023/09/18 05:28:00;;;;;;;0.60;0.60;;;18.90;99.90;;;;;;4971666;28;20041;-88
2023/09/18 05:30:40;;;;;;;0.50;0.50;;;18.60;99.90;;;;;;4987660;28;20125;-92
2023/09/18 05:33:08;;;;;;;0.60;0.60;;;18.90;99.90;;;;;;4967211;28;20095;-87
2023/09/18 05:35:41;;;;;;;0.50;0.50;;;18.60;99.90;;;;;;4969876;28;20077;-89
2023/09/18 05:38:08;;;;;;;0.60;0.60;;;19.00;99.90;;;;;;4986367;28;20054;-88
2023/09/18 05:40:34;;;;;;;0.60;0.60;;;18.70;99.90;;;;;;4968736;28;20570;-87
2023/09/18 05:43:00;;;;;;;0.60;0.60;;;18.80;99.90;;;;;;4986038;28;20132;-86
2023/09/18 05:45:27;;;;;;;0.60;0.60;;;19.10;99.90;;;;;;4975119;28;20046;-88
2023/09/18 05:48:05;;;;;;;0.60;0.60;;;19.00;99.90;;;;;;4965323;28;20108;-86
2023/09/18 05:50:32;;;;;;;0.60;0.60;;;19.10;99.90;;;;;;4982154;28;20047;-84
2023/09/18 05:53:03;;;;;;;0.60;0.60;;;19.20;99.90;;;;;;4984795;28;20057;-86
2023/09/18 05:55:32;;;;;;;0.60;0.60;;;19.20;99.90;;;;;;4988002;28;20058;-85
2023/09/18 05:57:58;;;;;;;0.60;0.60;;;19.40;99.90;;;;;;4969028;28;20756;-82
2023/09/18 06:00:25;;;;;;;0.60;0.60;;;19.30;99.90;;;;;;4985069;28;20112;-85
2023/09/18 06:02:53;;;;;;;0.60;0.60;;;19.60;99.90;;;;;;4985391;28;20069;-89
2023/09/18 06:05:22;;;;;;;0.70;0.70;;;19.30;99.90;;;;;;4970808;28;20053;-89
2023/09/18 06:07:51;;;;;;;0.60;0.60;;;19.70;99.90;;;;;;5000833;28;20038;-88
2023/09/18 06:10:21;;;;;;;0.70;0.70;;;19.50;99.90;;;;;;4986310;28;20084;-92
2023/09/18 06:12:46;;;;;;;0.70;0.70;;;19.80;99.90;;;;;;4988515;28;20038;-86
2023/09/18 06:15:12;;;;;;;0.70;0.70;;;19.50;99.90;;;;;;4985803;28;20050;-87
2023/09/18 06:17:47;;;;;;;0.80;0.80;;;19.60;99.90;;;;;;4967807;28;20125;-86
2023/09/18 06:20:13;;;;;;;0.70;0.70;;;19.50;99.90;;;;;;4981410;28;20045;-85
2023/09/18 06:22:40;;;;;;;0.70;0.70;;;19.50;99.90;;;;;;4984748;28;20049;-84
2023/09/18 06:25:09;;;;;;;0.70;0.70;;;19.80;99.90;;;;;;4984817;28;20545;-94
2023/09/18 06:27:38;;;;;;;0.73;0.73;;;20.00;99.90;;;;;;4977665;28;20057;-90
2023/09/18 06:30:07;;;;;;;0.80;0.80;;;19.80;99.90;;;;;;4980725;28;20132;-92
2023/09/18 06:32:33;;;;;;;0.80;0.80;;;19.90;99.90;;;;;;4980805;28;20045;-90
2023/09/18 06:35:00;;;;;;;0.80;0.80;;;20.10;99.90;;;;;;4991390;28;20054;-86
2023/09/18 06:37:26;;;;;;;0.80;0.80;;;20.10;99.90;;;;;;4972295;28;20635;-83
2023/09/18 06:39:56;;;;;;;0.82;0.82;;;20.00;99.90;;;;;;5005593;28;20132;-90
2023/09/18 06:42:25;;;;;;;0.80;0.80;;;20.40;99.90;;;;;;4989072;28;20096;-90
2023/09/18 06:44:50;;;;;;;1.00;1.00;;;20.00;99.90;;;;;;4988904;28;20057;-83
2023/09/18 06:47:16;;;;;;;0.80;0.80;;;20.30;99.90;;;;;;4988241;28;20045;-89
2023/09/18 06:49:42;;;;;;;0.90;0.90;;;20.10;99.90;;;;;;4972916;28;20034;-85
2023/09/18 06:52:09;;;;;;;0.80;0.80;;;20.20;99.90;;;;;;4988717;28;20076;-82
2023/09/18 06:54:36;;;;;;;1.00;1.00;;;20.10;99.90;;;;;;5003443;28;20075;-83
2023/09/18 06:57:04;;;;;;;0.90;0.90;;;20.40;99.90;;;;;;4993153;28;20168;-90
2023/09/18 06:59:30;;;;;;;0.90;0.90;;;19.90;99.90;;;;;;4977662;28;20050;-90
2023/09/18 07:01:59;;;;;;;1.02;1.02;;;20.20;99.90;;;;;;4975356;28;20676;-89
2023/09/18 07:04:28;;;;;;;1.00;1.00;;;20.40;99.90;;;;;;4975967;28;20503;-90
2023/09/18 07:06:54;;;;;;;0.90;0.90;;;20.40;99.90;;;;;;4975048;28;20503;-86
2023/09/18 07:09:22;;;;;;;1.02;1.02;;;19.70;99.90;;;;;;4991164;28;20046;-86
2023/09/18 07:11:49;;;;;;;0.80;0.80;;;20.50;99.90;;;;;;4975357;28;20182;-86
2023/09/18 07:14:15;;;;;;;0.90;0.90;;;19.80;99.90;;;;;;4973963;28;20615;-88
2023/09/18 07:16:40;;;;;;;1.00;1.00;;;19.80;99.90;;;;;;4987580;28;20053;-86
2023/09/18 07:19:06;;;;;;;1.00;1.00;;;20.60;99.90;;;;;;4978533;28;20578;-86
2023/09/18 07:21:34;;;;;;;0.90;0.90;;;19.90;99.90;;;;;;4984686;28;20538;-88
2023/09/18 07:24:00;;;;;;;1.00;1.00;;;19.90;99.90;;;;;;4973038;28;20057;-87
2023/09/18 07:26:26;;;;;;;1.00;1.00;;;20.10;99.90;;;;;;4974557;28;20053;-87
2023/09/18 07:28:51;;;;;;;0.95;0.95;;;20.50;99.90;;;;;;4976012;28;20108;-88
2023/09/18 07:31:17;;;;;;;0.90;0.90;;;20.20;99.90;;;;;;4975410;28;20042;-86
2023/09/18 07:33:43;;;;;;;0.93;0.93;;;20.50;99.90;;;;;;4988626;28;20487;-89
2023/09/18 07:36:10;;;;;;;0.93;0.93;;;20.30;99.90;;;;;;4965819;28;20054;-89
2023/09/18 07:38:38;;;;;;;1.02;1.02;;;20.80;99.90;;;;;;4969848;28;20042;-92
2023/09/18 07:41:15;;;;;;;1.10;1.10;;;20.60;99.90;;;;;;4987087;28;20454;-92
2023/09/18 07:43:41;;;;;;;1.10;1.10;;;20.60;99.90;;;;;;4973661;28;20427;-88
2023/09/18 07:46:07;;;;;;;1.10;1.10;;;20.50;99.90;;;;;;4975185;28;20483;-91
2023/09/18 07:48:34;;;;;;;1.20;1.20;;;20.50;99.90;;;;;;4974428;28;20138;-88
2023/09/18 07:50:59;;;;;;;1.50;1.40;;;20.50;99.90;;;;;;4972986;28;20077;-86
2023/09/18 07:53:25;;;;;;;1.20;1.20;;;21.20;99.90;;;;;;4974126;28;20553;-86
2023/09/18 07:56:50;;;;;;;1.20;1.20;;;20.60;99.90;;;;;;4976527;28;20089;-95
2023/09/18 07:59:29;;;;;;;1.20;1.20;;;20.60;99.90;;;;;;4972402;28;20050;-94
2023/09/18 08:01:54;;;;;;;1.30;1.30;;;20.60;99.90;;;;;;4977906;28;20141;-87
2023/09/18 08:04:23;;;;;;;1.30;1.30;;;20.40;99.90;;;;;;4989261;28;20047;-90
2023/09/18 08:06:49;;;;;;;1.30;1.30;;;20.30;99.90;;;;;;4990386;28;20081;-86
2023/09/18 08:09:14;;;;;;;1.27;1.27;;;20.40;99.90;;;;;;4969954;28;20167;-87
2023/09/18 08:11:42;;;;;;;1.30;1.30;;;21.00;99.90;;;;;;4975047;28;20065;-87
2023/09/18 08:14:09;;;;;;;1.30;1.30;;;21.00;99.90;;;;;;4990414;28;20050;-89
2023/09/18 08:16:40;;;;;;;1.52;1.42;;;20.70;99.90;;;;;;4975056;28;20048;-90
2023/09/18 08:19:06;;;;;;;1.60;1.50;;;20.40;99.90;;;;;;4962960;28;20069;-87
2023/09/18 08:21:32;;;;;;;1.30;1.30;;;20.70;99.90;;;;;;4988922;28;20143;-86
2023/09/18 08:23:58;;;;;;;1.67;1.58;;;21.10;99.90;;;;;;4972111;28;20045;-86
2023/09/18 08:26:26;;;;;;;1.52;1.42;;;20.90;99.90;;;;;;4972308;28;20633;-87
2023/09/18 08:28:52;;;;;;;1.55;1.45;;;20.80;99.90;;;;;;4988374;28;20107;-85
2023/09/18 08:31:18;;;;;;;1.30;1.30;;;21.00;99.90;;;;;;4969076;28;20062;-88
2023/09/18 08:33:44;;;;;;;1.27;1.27;;;21.30;99.90;;;;;;4969519;28;20060;-86
2023/09/18 08:36:10;;;;;;;1.25;1.25;;;21.00;99.90;;;;;;4976071;28;20062;-91
2023/09/18 08:38:43;;;;;;;1.35;1.35;;;21.30;99.90;;;;;;4970503;28;20046;-94
2023/09/18 08:41:10;;;;;;;1.20;1.20;;;21.50;99.90;;;;;;4970948;28;20049;-84
2023/09/18 08:43:40;;;;;;;1.00;1.00;;;21.10;99.90;;;;;;4971580;28;20046;-87
2023/09/18 08:46:06;;;;;;;1.08;1.08;;;21.70;99.90;;;;;;4961687;28;20038;-84
2023/09/18 08:48:36;;;;;;;1.00;1.00;;;21.40;99.90;;;;;;4967646;28;20385;-83
2023/09/18 08:51:06;;;;;;;1.00;1.00;;;21.20;99.90;;;;;;5004755;28;20049;-89
2023/09/18 08:53:33;;;;;;;1.10;1.10;;;21.50;99.90;;;;;;4989136;28;20046;-87
2023/09/18 08:56:01;;;;;;;1.20;1.20;;;21.60;99.90;;;;;;4987885;28;20543;-82
2023/09/18 08:58:39;;;;;;;1.05;1.05;;;21.90;99.90;;;;;;4987789;28;20087;-85
2023/09/18 09:01:09;;;;;;;1.10;1.10;;;21.50;99.90;;;;;;4987434;28;20068;-90
2023/09/18 09:03:36;;;;;;;0.98;0.98;;;21.90;99.90;;;;;;4986273;28;20041;-83
2023/09/18 09:06:02;;;;;;;0.95;0.95;;;21.60;99.90;;;;;;5007915;28;20549;-85
2023/09/18 09:08:31;;;;;;;1.05;1.05;;;21.60;99.90;;;;;;4986951;28;20045;-84
2023/09/18 09:11:00;;;;;;;1.02;1.02;;;21.70;99.90;;;;;;4970903;28;20088;-84
2023/09/18 09:13:26;;;;;;;1.02;1.02;;;21.70;99.90;;;;;;4970672;28;20060;-83
2023/09/18 09:15:55;;;;;;;1.20;1.20;;;21.70;99.90;;;;;;4986201;28;20608;-86
2023/09/18 09:18:22;;;;;;;1.10;1.10;;;22.00;99.90;;;;;;4971354;28;20131;-86
2023/09/18 09:21:04;;;;;;;0.95;0.95;;;22.00;99.90;;;;;;4969105;28;20061;-90
2023/09/18 09:23:53;;;;;;;1.00;1.00;;;22.20;99.90;;;;;;4971602;28;20132;-87
2023/09/18 09:26:22;;;;;;;1.00;1.00;;;22.40;99.90;;;;;;4986888;28;20089;-81
2023/09/18 09:28:49;;;;;;;0.93;0.93;;;22.50;99.90;;;;;;4971694;28;20038;-87
2023/09/18 09:31:29;;;;;;;1.00;1.00;;;22.30;99.90;;;;;;4987007;28;20175;-81
2023/09/18 09:33:58;;;;;;;1.10;1.10;;;22.20;99.90;;;;;;4986246;28;20522;-87
2023/09/18 09:36:24;;;;;;;1.00;1.00;;;22.00;99.90;;;;;;4986127;28;20054;-88
2023/09/18 09:38:57;;;;;;;0.90;0.90;;;22.00;99.90;;;;;;4986628;28;20057;-82
2023/09/18 09:41:23;;;;;;;0.98;0.98;;;22.10;99.90;;;;;;4986930;28;20120;-84
2023/09/18 09:43:51;;;;;;;0.90;0.90;;;22.20;99.90;;;;;;4971090;28;20574;-87
2023/09/18 09:46:18;;;;;;;0.90;0.90;;;22.30;99.90;;;;;;4970213;28;20133;-85
2023/09/18 09:49:02;;;;;;;0.90;0.90;;;22.50;99.90;;;;;;4970419;28;20053;-91
2023/09/18 09:51:29;;;;;;;0.90;0.90;;;22.40;99.90;;;;;;4986352;28;20050;-91
2023/09/18 09:53:55;;;;;;;0.82;0.82;;;22.70;99.90;;;;;;5003859;28;20144;-82
2023/09/18 09:56:25;;;;;;;0.90;0.90;;;22.70;99.90;;;;;;4970874;28;20191;-91
2023/09/18 09:59:07;;;;;;;1.00;1.00;;;22.90;99.90;;;;;;4987159;28;20110;-87
2023/09/18 10:01:34;;;;;;;0.90;0.90;;;22.60;99.90;;;;;;4984694;28;20736;-85
2023/09/18 10:04:06;;;;;;;0.90;0.90;;;22.50;99.90;;;;;;5006065;28;20050;-89
2023/09/18 10:06:36;;;;;;;1.00;1.00;;;22.50;99.90;;;;;;4990638;28;20050;-89
2023/09/18 10:09:07;;;;;;;1.00;1.00;;;22.40;99.90;;;;;;5006341;28;20066;-90
2023/09/18 10:11:37;;;;;;;0.95;0.95;;;22.50;99.90;;;;;;5006654;28;20038;-88
2023/09/18 10:14:11;;;;;;;1.00;1.00;;;22.40;99.90;;;;;;4971166;28;20100;-85
2023/09/18 10:16:52;;;;;;;0.90;0.90;;;22.40;99.90;;;;;;4989726;28;20805;-87
2023/09/18 10:19:41;;;;;;;0.90;0.90;;;22.80;99.90;;;;;;4989485;28;20137;-84
2023/09/18 10:22:26;;;;;;;0.90;0.90;;;22.80;99.90;;;;;;4988474;28;20585;-84
2023/09/18 10:25:00;;;;;;;1.00;1.00;;;22.70;99.90;;;;;;5007202;28;20080;-82
2023/09/18 10:27:28;;;;;;;0.90;0.90;;;22.70;99.90;;;;;;5007124;28;20523;-94
2023/09/18 10:29:54;;;;;;;0.80;0.80;;;22.70;99.90;;;;;;4982146;28;20050;-88
2023/09/18 10:32:21;;;;;;;0.80;0.80;;;23.00;99.90;;;;;;4969555;28;20069;-88
2023/09/18 10:34:48;;;;;;;0.85;0.85;;;23.30;99.90;;;;;;4990304;28;20054;-88
2023/09/18 10:37:36;;;;;;;0.77;0.77;;;23.00;99.90;;;;;;4975862;28;20081;-92
2023/09/18 10:40:04;;;;;;;0.70;0.70;;;23.40;99.90;;;;;;4991634;28;20042;-88
2023/09/18 10:42:31;;;;;;;0.70;0.70;;;23.40;99.90;;;;;;4973808;28;20050;-84
2023/09/18 10:44:57;;;;;;;0.82;0.82;;;23.10;99.90;;;;;;4973211;28;20118;-86
2023/09/18 10:47:23;;;;;;;0.75;0.75;;;23.10;99.90;;;;;;4985490;28;20046;-85
2023/09/18 10:49:50;;;;;;;0.80;0.80;;;23.00;99.90;;;;;;4988269;28;20066;-85
2023/09/18 10:52:16;;;;;;;0.50;0.50;;;23.40;99.90;;;;;;4973228;28;20065;-91
2023/09/18 10:54:45;;;;;;;0.80;0.80;;;23.20;99.90;;;;;;4989353;28;20046;-86
2023/09/18 10:57:11;;;;;;;0.80;0.80;;;23.40;99.90;;;;;;4989126;28;20057;-85
2023/09/18 10:59:45;;;;;;;0.80;0.80;;;24.00;99.90;;;;;;4989062;28;20076;-86
2023/09/18 11:02:16;;;;;;;;;;;24.50;99.90;;;;;;5005026;28;20539;-88
2023/09/18 11:04:44;;;;;;;0.68;0.68;;;24.90;99.90;;;;;;4974257;28;19925;-86
2023/09/18 11:07:23;;;;;;;0.82;0.82;;;24.90;99.90;;;;;;4989478;28;20057;-86
2023/09/18 11:09:51;;;;;;;0.60;0.60;;;25.10;99.90;;;;;;5005629;28;20057;-84
2023/09/18 11:12:18;;;;;;;0.30;0.30;;;24.70;99.90;;;;;;4987350;28;20056;-85
2023/09/18 11:14:57;;;;;;;0.93;0.93;;;24.20;99.90;;;;;;4988598;28;20061;-81
2023/09/18 11:17:37;;;;;;;0.30;0.30;;;23.90;99.90;;;;;;4972678;28;20088;-84
2023/09/18 11:20:12;;;;;;;1.00;1.00;;;24.10;99.90;;;;;;4988080;28;20073;-85
2023/09/18 11:22:46;;;;;;;0.30;0.30;;;24.30;99.90;;;;;;4990318;28;20131;-88
2023/09/18 11:25:34;;;;;;;1.00;1.00;;;24.30;99.90;;;;;;4986768;28;20046;-90
2023/09/18 11:28:02;;;;;;;0.30;0.30;;;23.80;99.90;;;;;;4973884;28;20111;-87
2023/09/18 11:30:35;;;;;;;0.90;0.90;;;23.70;99.90;;;;;;4990805;28;20064;-87
2023/09/18 11:33:06;;;;;;;0.30;0.30;;;23.60;99.90;;;;;;5007256;28;20440;-85
2023/09/18 11:35:35;;;;;;;1.00;1.00;;;24.00;99.90;;;;;;5004144;28;20046;-87
2023/09/18 11:38:10;;;;;;;0.40;0.40;;;24.00;99.90;;;;;;4973250;28;20046;-84
2023/09/18 11:40:41;;;;;;;1.00;1.00;;;24.00;99.90;;;;;;4971161;28;20069;-85
2023/09/18 11:43:41;;;;;;;0.30;0.30;;;24.30;99.90;;;;;;4972866;28;20569;-90
2023/09/18 11:46:09;;;;;;;1.20;1.20;;;24.70;99.90;;;;;;4988536;28;20052;-87
2023/09/18 11:48:42;;;;;;;0.35;0.35;;;25.00;99.90;;;;;;4990038;28;20073;-89
2023/09/18 11:51:17;;;;;;;0.30;0.30;;;25.20;99.90;;;;;;4971841;28;20533;-91
2023/09/18 11:53:51;;;;;;;0.80;0.80;;;25.40;99.90;;;;;;4975874;28;20042;-84
2023/09/18 11:56:17;;;;;;;0.30;0.30;;;25.20;99.90;;;;;;4977993;28;20054;-86
2023/09/18 11:58:48;;;;;;;0.30;0.30;;;25.50;99.90;;;;;;4986379;28;20038;-89
2023/09/18 12:01:15;;;;;;;0.30;0.30;;;25.80;99.90;;;;;;4983855;28;20518;-85
2023/09/18 12:03:41;;;;;;;0.30;0.30;;;25.20;99.90;;;;;;4987052;28;20042;-85
2023/09/18 12:06:12;;;;;;;0.30;0.30;;;25.30;99.90;;;;;;4972157;28;20583;-88
2023/09/18 12:08:39;;;;;;;0.30;0.30;;;25.30;99.90;;;;;;4971581;28;20077;-89
2023/09/18 12:11:06;;;;;;;0.30;0.30;;;24.50;99.90;;;;;;4973763;28;20042;-86
2023/09/18 12:13:32;;;;;;;0.30;0.30;;;24.90;99.90;;;;;;4967073;28;20465;-84
2023/09/18 12:16:18;;;;;;;0.30;0.30;;;25.10;99.90;;;;;;4987381;28;20077;-87
2023/09/18 12:18:48;;;;;;;0.30;0.30;;;24.40;99.90;;;;;;4973085;28;20052;-92
2023/09/18 12:21:19;;;;;;;0.30;0.30;;;24.50;99.90;;;;;;4969291;28;20041;-92
2023/09/18 12:23:46;;;;;;;0.30;0.30;;;24.20;99.90;;;;;;4987301;28;20069;-82
2023/09/18 12:26:13;;;;;;;0.35;0.35;;;24.60;99.90;;;;;;5003471;28;20139;-87
2023/09/18 12:28:43;;;;;;;0.60;0.60;;;24.90;99.90;;;;;;4986327;28;20515;-82
2023/09/18 12:31:16;;;;;;;0.30;0.30;;;25.30;99.90;;;;;;4985481;28;20054;-87
2023/09/18 12:33:47;;;;;;;0.40;0.40;;;25.50;99.90;;;;;;4986336;28;20065;-82
2023/09/18 12:36:18;;;;;;;0.30;0.30;;;25.60;99.90;;;;;;4986078;28;20116;-86
2023/09/18 12:38:54;;;;;;;0.30;0.30;;;25.80;99.90;;;;;;5001813;28;20038;-89
2023/09/18 12:41:20;;;;;;;0.30;0.30;;;25.60;99.90;;;;;;4982317;28;20057;-90
2023/09/18 12:43:46;;;;;;;0.30;0.30;;;25.60;99.90;;;;;;4985439;28;20042;-91
2023/09/18 12:46:13;;;;;;;0.30;0.30;;;25.60;99.90;;;;;;4970020;28;20049;-81
2023/09/18 12:48:45;;;;;;;0.30;0.30;;;25.30;99.90;;;;;;4985241;28;20458;-85
2023/09/18 12:51:14;;;;;;;0.30;0.30;;;25.20;99.90;;;;;;4986014;28;20049;-91
2023/09/18 12:54:00;;;;;;;0.30;0.30;;;24.90;99.90;;;;;;4969727;28;20045;-86
2023/09/18 12:56:27;;;;;;;0.30;0.30;;;25.10;99.90;;;;;;5003699;28;20061;-85
2023/09/18 12:58:58;;;;;;;0.30;0.30;;;25.10;99.90;;;;;;4968686;28;20513;-83
2023/09/18 13:01:24;;;;;;;0.30;0.30;;;25.50;99.90;;;;;;4986515;28;20136;-87
2023/09/18 13:03:53;;;;;;;0.30;0.30;;;25.60;99.90;;;;;;4987435;28;20148;-87
2023/09/18 13:06:20;;;;;;;0.30;0.30;;;25.40;99.90;;;;;;4986181;28;20172;-86